sensor_id;sensor_type;location;lat;lon;timestamp;temperature;humidity
1950;DHT22;975;48.760;9.152;2022-10-16T19:03:13;22.20;99.10
1950;DHT22;975;48.760;9.152;2022-10-16T19:05:41;17.60;99.90
1950;DHT22;975;48.760;9.152;2022-10-16T19:08:14;17.30;99.90
1950;DHT22;975;48.760;9.152;2022-10-16T19:10:41;17.30;99.90
1950;DHT22;975;48.760;9.152;2022-10-16T19:13:08;17.20;99.90
1950;DHT22;975;48.760;9.152;2022-10-16T19:15:40;17.20;99.90
1950;DHT22;975;48.760;9.152;2022-10-16T19:18:07;17.10;99.90
1950;DHT22;975;48.760;9.152;2022-10-16T19:20:34;17.00;99.90
1950;DHT22;975;48.760;9.152;2022-10-16T19:23:01;17.00;99.90
1950;DHT22;975;48.760;9.152;2022-10-16T19:25:30;17.00;99.90
1950;DHT22;975;48.760;9.152;2022-10-16T19:27:57;17.00;99.90
1950;DHT22;975;48.760;9.152;2022-10-16T19:30:26;16.90;99.90
1950;DHT22;975;48.760;9.152;2022-10-16T19:32:54;17.00;99.90
1950;DHT22;975;48.760;9.152;2022-10-16T19:35:21;16.90;99.90
1950;DHT22;975;48.760;9.152;2022-10-16T19:37:49;16.90;99.90
1950;DHT22;975;48.760;9.152;2022-10-16T19:40:17;16.90;99.90
1950;DHT22;975;48.760;9.152;2022-10-16T19:42:46;16.90;99.90
1950;DHT22;975;48.760;9.152;2022-10-16T19:45:16;16.80;99.90
1950;DHT22;975;48.760;9.152;2022-10-16T19:47:43;16.80;99.90
1950;DHT22;975;48.760;9.152;2022-10-16T19:50:11;16.80;99.90
1950;DHT22;975;48.760;9.152;2022-10-16T19:52:44;16.70;99.90
1950;DHT22;975;48.760;9.152;2022-10-16T19:55:13;16.70;99.90
1950;DHT22;975;48.760;9.152;2022-10-16T19:57:45;16.70;99.90
1950;DHT22;975;48.760;9.152;2022-10-16T20:00:12;16.70;99.90
1950;DHT22;975;48.760;9.152;2022-10-16T20:02:40;16.60;99.90
1950;DHT22;975;48.760;9.152;2022-10-16T20:05:08;16.60;99.90
1950;DHT22;975;48.760;9.152;2022-10-16T20:07:35;16.50;99.90
1950;DHT22;975;48.760;9.152;2022-10-16T20:10:05;16.50;99.90
1950;DHT22;975;48.760;9.152;2022-10-16T20:12:35;16.50;99.90
1950;DHT22;975;48.760;9.152;2022-10-16T20:15:07;16.50;99.90
1950;DHT22;975;48.760;9.152;2022-10-16T20:17:35;16.50;99.90
1950;DHT22;975;48.760;9.152;2022-10-16T20:20:02;16.50;99.90
1950;DHT22;975;48.760;9.152;2022-10-16T20:22:29;16.50;99.90
1950;DHT22;975;48.760;9.152;2022-10-16T20:24:57;16.50;99.90
1950;DHT22;975;48.760;9.152;2022-10-16T20:27:24;16.50;99.90
1950;DHT22;975;48.760;9.152;2022-10-16T20:29:56;16.50;99.90
1950;DHT22;975;48.760;9.152;2022-10-16T20:32:25;16.50;99.90
1950;DHT22;975;48.760;9.152;2022-10-16T20:34:52;16.40;99.90
1950;DHT22;975;48.760;9.152;2022-10-16T20:37:19;16.40;99.90
1950;DHT22;975;48.760;9.152;2022-10-16T20:39:47;16.40;99.90
1950;DHT22;975;48.760;9.152;2022-10-16T20:42:14;16.40;99.90
1950;DHT22;975;48.760;9.152;2022-10-16T20:44:41;16.40;99.90
1950;DHT22;975;48.760;9.152;2022-10-16T20:47:08;16.40;99.90
1950;DHT22;975;48.760;9.152;2022-10-16T20:49:37;16.40;99.90
1950;DHT22;975;48.760;9.152;2022-10-16T20:52:04;16.50;99.90
1950;DHT22;975;48.760;9.152;2022-10-16T20:54:31;16.50;99.90
1950;DHT22;975;48.760;9.152;2022-10-16T20:56:59;16.50;99.90
1950;DHT22;975;48.760;9.152;2022-10-16T20:59:26;16.40;99.90
1950;DHT22;975;48.760;9.152;2022-10-16T21:01:53;16.40;99.90
1950;DHT22;975;48.760;9.152;2022-10-16T21:04:23;16.40;99.90
1950;DHT22;975;48.760;9.152;2022-10-16T21:06:52;16.40;99.90
1950;DHT22;975;48.760;9.152;2022-10-16T21:09:19;16.40;99.90
1950;DHT22;975;48.760;9.152;2022-10-16T21:11:46;16.30;99.90
1950;DHT22;975;48.760;9.152;2022-10-16T21:14:13;16.30;99.90
1950;DHT22;975;48.760;9.152;2022-10-16T21:16:41;16.30;99.90
1950;DHT22;975;48.760;9.152;2022-10-16T21:19:08;16.30;99.90
1950;DHT22;975;48.760;9.152;2022-10-16T21:21:37;16.30;99.90
1950;DHT22;975;48.760;9.152;2022-10-16T21:24:06;16.20;99.90
1950;DHT22;975;48.760;9.152;2022-10-16T21:26:33;16.20;99.90
1950;DHT22;975;48.760;9.152;2022-10-16T22:43:05;16.20;99.90
